LDZD/ZAD METAR and TAF weather

Enter ICAO airport designator
Station Type Date Time Source
LDZD METAR 2020/07/15 01:30 UTC NOAA

LDZD 150130Z 14004KT CAVOK 15/09 Q1013


Station Type Date Time Source
LDZD Decoded METAR 2020/07/15 01:30 UTC NOAA

Zadar / Zemunik, Croatia (LDZD) 44-06N 015-21E
Jul 14, 2020 - 09:30 PM EDT / 2020.07.15 0130 UTC
Wind: from the SE (140 degrees) at 5 MPH (4 KT):0
Visibility: greater than 7 mile(s):0
Temperature: 59 F (15 C)
Dew Point: 48 F (9 C)
Relative Humidity: 67%
Pressure (altimeter): 29.91 in. Hg (1013 hPa)
ob: LDZD 150130Z 14004KT CAVOK 15/09 Q1013
cycle: 1

Station Type Date Time Source
LDZD TAF 2020/07/14 18:30 UTC NOAA

TAF COR LDZD 141725Z 1418/1518 30007KT CAVOK TX27/1512Z TN16/1503Z
BECMG 1419/1421 VRB02KT
BECMG 1509/1511 25009KT

Example: see airport list